sensor_id;sensor_type;location;lat;lon;timestamp;P1;durP1;ratioP1;P2;durP2;ratioP2
44822;SDS011;51097;51.984;5.650;2024-03-08T00:00:26;40.53;;;21.23;;
44822;SDS011;51097;51.984;5.650;2024-03-08T00:02:52;30.92;;;19.65;;
44822;SDS011;51097;51.984;5.650;2024-03-08T00:05:19;37.22;;;22.42;;
44822;SDS011;51097;51.984;5.650;2024-03-08T00:07:45;31.10;;;19.90;;
44822;SDS011;51097;51.984;5.650;2024-03-08T00:10:12;33.88;;;19.58;;
44822;SDS011;51097;51.984;5.650;2024-03-08T00:12:42;34.35;;;20.35;;
44822;SDS011;51097;51.984;5.650;2024-03-08T00:15:16;36.92;;;20.50;;
44822;SDS011;51097;51.984;5.650;2024-03-08T00:17:43;34.78;;;20.55;;
44822;SDS011;51097;51.984;5.650;2024-03-08T00:20:09;36.00;;;21.02;;
44822;SDS011;51097;51.984;5.650;2024-03-08T00:22:35;36.47;;;21.65;;
44822;SDS011;51097;51.984;5.650;2024-03-08T00:25:05;35.80;;;20.77;;
44822;SDS011;51097;51.984;5.650;2024-03-08T00:27:34;34.33;;;20.20;;
44822;SDS011;51097;51.984;5.650;2024-03-08T00:30:00;38.38;;;22.10;;
44822;SDS011;51097;51.984;5.650;2024-03-08T00:32:26;32.53;;;19.58;;
44822;SDS011;51097;51.984;5.650;2024-03-08T00:34:56;35.55;;;22.10;;
44822;SDS011;51097;51.984;5.650;2024-03-08T00:37:22;32.38;;;19.80;;
44822;SDS011;51097;51.984;5.650;2024-03-08T00:39:48;36.42;;;21.08;;
44822;SDS011;51097;51.984;5.650;2024-03-08T00:42:15;35.15;;;19.63;;
44822;SDS011;51097;51.984;5.650;2024-03-08T00:44:41;38.25;;;20.67;;
44822;SDS011;51097;51.984;5.650;2024-03-08T00:47:06;35.28;;;19.90;;
44822;SDS011;51097;51.984;5.650;2024-03-08T00:49:32;33.00;;;20.38;;
44822;SDS011;51097;51.984;5.650;2024-03-08T00:51:57;36.05;;;21.38;;
44822;SDS011;51097;51.984;5.650;2024-03-08T00:54:23;32.05;;;21.25;;
44822;SDS011;51097;51.984;5.650;2024-03-08T00:56:48;35.63;;;21.17;;
44822;SDS011;51097;51.984;5.650;2024-03-08T00:59:14;30.40;;;17.95;;
44822;SDS011;51097;51.984;5.650;2024-03-08T01:01:40;37.60;;;21.20;;
44822;SDS011;51097;51.984;5.650;2024-03-08T01:04:06;32.55;;;20.88;;
44822;SDS011;51097;51.984;5.650;2024-03-08T01:06:32;33.72;;;20.00;;
44822;SDS011;51097;51.984;5.650;2024-03-08T01:08:58;35.15;;;20.27;;
44822;SDS011;51097;51.984;5.650;2024-03-08T01:11:24;35.13;;;20.98;;
44822;SDS011;51097;51.984;5.650;2024-03-08T01:13:50;36.55;;;21.05;;
44822;SDS011;51097;51.984;5.650;2024-03-08T01:16:16;29.50;;;19.58;;
44822;SDS011;51097;51.984;5.650;2024-03-08T01:18:46;31.58;;;19.92;;
44822;SDS011;51097;51.984;5.650;2024-03-08T01:21:12;31.58;;;19.73;;
44822;SDS011;51097;51.984;5.650;2024-03-08T01:23:39;38.58;;;21.20;;
44822;SDS011;51097;51.984;5.650;2024-03-08T01:26:04;34.85;;;20.90;;
44822;SDS011;51097;51.984;5.650;2024-03-08T01:28:31;33.47;;;19.55;;
44822;SDS011;51097;51.984;5.650;2024-03-08T01:30:58;32.53;;;21.90;;
44822;SDS011;51097;51.984;5.650;2024-03-08T01:33:25;35.78;;;21.65;;
44822;SDS011;51097;51.984;5.650;2024-03-08T01:35:52;35.20;;;20.70;;
44822;SDS011;51097;51.984;5.650;2024-03-08T01:38:18;38.03;;;22.05;;
44822;SDS011;51097;51.984;5.650;2024-03-08T01:40:44;36.30;;;21.67;;
44822;SDS011;51097;51.984;5.650;2024-03-08T01:43:24;35.47;;;20.60;;
44822;SDS011;51097;51.984;5.650;2024-03-08T01:45:52;34.95;;;23.13;;
44822;SDS011;51097;51.984;5.650;2024-03-08T01:48:18;35.03;;;21.02;;
44822;SDS011;51097;51.984;5.650;2024-03-08T01:50:47;30.83;;;20.55;;
44822;SDS011;51097;51.984;5.650;2024-03-08T01:53:12;39.08;;;22.65;;
44822;SDS011;51097;51.984;5.650;2024-03-08T01:55:40;35.97;;;21.55;;
44822;SDS011;51097;51.984;5.650;2024-03-08T01:58:06;36.90;;;21.70;;
44822;SDS011;51097;51.984;5.650;2024-03-08T02:00:35;33.63;;;21.65;;
44822;SDS011;51097;51.984;5.650;2024-03-08T02:03:01;40.80;;;21.23;;
44822;SDS011;51097;51.984;5.650;2024-03-08T02:05:27;35.55;;;22.25;;
44822;SDS011;51097;51.984;5.650;2024-03-08T02:07:53;31.45;;;21.05;;
44822;SDS011;51097;51.984;5.650;2024-03-08T02:10:20;39.53;;;22.40;;
44822;SDS011;51097;51.984;5.650;2024-03-08T02:12:47;31.98;;;20.80;;
44822;SDS011;51097;51.984;5.650;2024-03-08T02:15:13;32.60;;;21.63;;
44822;SDS011;51097;51.984;5.650;2024-03-08T02:17:40;35.67;;;21.13;;
44822;SDS011;51097;51.984;5.650;2024-03-08T02:20:05;30.98;;;20.58;;
44822;SDS011;51097;51.984;5.650;2024-03-08T02:22:33;32.28;;;21.15;;
44822;SDS011;51097;51.984;5.650;2024-03-08T02:24:59;36.85;;;21.90;;
44822;SDS011;51097;51.984;5.650;2024-03-08T02:27:27;38.03;;;22.75;;
44822;SDS011;51097;51.984;5.650;2024-03-08T02:29:54;34.45;;;21.73;;
44822;SDS011;51097;51.984;5.650;2024-03-08T02:32:21;32.47;;;19.88;;
44822;SDS011;51097;51.984;5.650;2024-03-08T02:34:50;32.83;;;20.73;;
44822;SDS011;51097;51.984;5.650;2024-03-08T02:37:16;33.72;;;20.70;;
44822;SDS011;51097;51.984;5.650;2024-03-08T02:39:42;30.27;;;21.13;;
44822;SDS011;51097;51.984;5.650;2024-03-08T02:42:08;31.02;;;21.50;;
44822;SDS011;51097;51.984;5.650;2024-03-08T02:44:34;31.65;;;22.42;;
44822;SDS011;51097;51.984;5.650;2024-03-08T02:46:59;35.53;;;22.45;;
44822;SDS011;51097;51.984;5.650;2024-03-08T02:49:28;38.78;;;22.67;;
44822;SDS011;51097;51.984;5.650;2024-03-08T02:51:54;38.25;;;22.77;;
44822;SDS011;51097;51.984;5.650;2024-03-08T02:54:22;28.98;;;20.50;;
44822;SDS011;51097;51.984;5.650;2024-03-08T02:56:48;36.08;;;21.67;;
44822;SDS011;51097;51.984;5.650;2024-03-08T02:59:17;32.63;;;20.50;;
44822;SDS011;51097;51.984;5.650;2024-03-08T03:01:43;34.47;;;21.10;;
44822;SDS011;51097;51.984;5.650;2024-03-08T03:04:09;38.47;;;21.42;;
44822;SDS011;51097;51.984;5.650;2024-03-08T03:06:35;33.85;;;22.27;;
44822;SDS011;51097;51.984;5.650;2024-03-08T03:09:00;33.10;;;22.10;;
44822;SDS011;51097;51.984;5.650;2024-03-08T03:11:26;36.33;;;22.10;;
44822;SDS011;51097;51.984;5.650;2024-03-08T03:13:52;39.13;;;22.70;;
44822;SDS011;51097;51.984;5.650;2024-03-08T03:16:18;31.58;;;21.20;;
44822;SDS011;51097;51.984;5.650;2024-03-08T03:18:47;35.97;;;22.80;;
44822;SDS011;51097;51.984;5.650;2024-03-08T03:21:14;36.33;;;22.00;;
44822;SDS011;51097;51.984;5.650;2024-03-08T03:23:40;33.10;;;22.42;;
44822;SDS011;51097;51.984;5.650;2024-03-08T03:26:07;36.53;;;22.85;;
44822;SDS011;51097;51.984;5.650;2024-03-08T03:28:38;35.92;;;22.13;;
44822;SDS011;51097;51.984;5.650;2024-03-08T03:31:06;30.27;;;20.17;;
44822;SDS011;51097;51.984;5.650;2024-03-08T03:33:31;37.38;;;21.08;;
44822;SDS011;51097;51.984;5.650;2024-03-08T03:35:59;38.70;;;21.90;;
44822;SDS011;51097;51.984;5.650;2024-03-08T03:38:25;34.03;;;22.38;;
44822;SDS011;51097;51.984;5.650;2024-03-08T03:40:53;37.35;;;22.90;;
44822;SDS011;51097;51.984;5.650;2024-03-08T03:43:22;34.17;;;22.98;;
44822;SDS011;51097;51.984;5.650;2024-03-08T03:45:48;36.03;;;22.70;;
44822;SDS011;51097;51.984;5.650;2024-03-08T03:48:13;34.38;;;22.10;;
44822;SDS011;51097;51.984;5.650;2024-03-08T03:50:39;36.13;;;23.35;;
44822;SDS011;51097;51.984;5.650;2024-03-08T03:53:05;37.95;;;22.88;;
44822;SDS011;51097;51.984;5.650;2024-03-08T03:55:33;32.65;;;22.85;;
44822;SDS011;51097;51.984;5.650;2024-03-08T03:57:59;33.83;;;20.50;;
44822;SDS011;51097;51.984;5.650;2024-03-08T04:00:26;33.88;;;21.02;;
44822;SDS011;51097;51.984;5.650;2024-03-08T04:02:52;38.35;;;22.33;;
44822;SDS011;51097;51.984;5.650;2024-03-08T04:05:17;34.83;;;22.25;;
44822;SDS011;51097;51.984;5.650;2024-03-08T04:07:43;33.17;;;22.02;;
44822;SDS011;51097;51.984;5.650;2024-03-08T04:10:09;37.75;;;23.55;;
44822;SDS011;51097;51.984;5.650;2024-03-08T04:12:36;38.92;;;22.95;;
44822;SDS011;51097;51.984;5.650;2024-03-08T04:15:02;36.15;;;23.42;;
44822;SDS011;51097;51.984;5.650;2024-03-08T04:17:29;40.53;;;25.42;;
44822;SDS011;51097;51.984;5.650;2024-03-08T04:19:55;35.78;;;22.17;;
44822;SDS011;51097;51.984;5.650;2024-03-08T04:22:22;42.35;;;25.15;;
44822;SDS011;51097;51.984;5.650;2024-03-08T04:24:47;35.85;;;23.33;;
44822;SDS011;51097;51.984;5.650;2024-03-08T04:27:13;33.53;;;22.65;;
44822;SDS011;51097;51.984;5.650;2024-03-08T04:29:42;35.97;;;21.77;;
44822;SDS011;51097;51.984;5.650;2024-03-08T04:32:07;36.63;;;22.70;;
44822;SDS011;51097;51.984;5.650;2024-03-08T04:34:33;41.83;;;24.10;;
44822;SDS011;51097;51.984;5.650;2024-03-08T04:36:59;32.95;;;21.92;;
44822;SDS011;51097;51.984;5.650;2024-03-08T04:39:26;36.15;;;22.50;;
44822;SDS011;51097;51.984;5.650;2024-03-08T04:41:55;37.55;;;23.98;;
44822;SDS011;51097;51.984;5.650;2024-03-08T04:44:24;33.58;;;22.80;;
44822;SDS011;51097;51.984;5.650;2024-03-08T04:46:50;33.67;;;22.52;;
44822;SDS011;51097;51.984;5.650;2024-03-08T04:49:15;36.00;;;22.45;;
44822;SDS011;51097;51.984;5.650;2024-03-08T04:51:41;37.00;;;22.95;;
44822;SDS011;51097;51.984;5.650;2024-03-08T04:54:07;38.85;;;25.23;;
44822;SDS011;51097;51.984;5.650;2024-03-08T04:56:32;36.97;;;22.75;;
44822;SDS011;51097;51.984;5.650;2024-03-08T04:58:58;37.85;;;23.67;;
44822;SDS011;51097;51.984;5.650;2024-03-08T05:01:24;39.40;;;21.90;;
44822;SDS011;51097;51.984;5.650;2024-03-08T05:03:49;43.55;;;23.60;;
44822;SDS011;51097;51.984;5.650;2024-03-08T05:06:16;34.33;;;22.30;;
44822;SDS011;51097;51.984;5.650;2024-03-08T05:08:42;33.13;;;20.95;;
44822;SDS011;51097;51.984;5.650;2024-03-08T05:11:07;36.72;;;22.10;;
44822;SDS011;51097;51.984;5.650;2024-03-08T05:13:33;36.05;;;24.20;;
44822;SDS011;51097;51.984;5.650;2024-03-08T05:15:59;36.20;;;21.85;;
44822;SDS011;51097;51.984;5.650;2024-03-08T05:18:25;36.67;;;23.58;;
44822;SDS011;51097;51.984;5.650;2024-03-08T05:20:51;36.15;;;23.33;;
44822;SDS011;51097;51.984;5.650;2024-03-08T05:23:17;36.83;;;22.38;;
44822;SDS011;51097;51.984;5.650;2024-03-08T05:25:44;39.70;;;25.67;;
44822;SDS011;51097;51.984;5.650;2024-03-08T05:28:11;36.88;;;22.05;;
44822;SDS011;51097;51.984;5.650;2024-03-08T05:30:37;39.67;;;24.25;;
44822;SDS011;51097;51.984;5.650;2024-03-08T05:33:03;38.38;;;23.92;;
44822;SDS011;51097;51.984;5.650;2024-03-08T05:35:29;37.17;;;22.08;;
44822;SDS011;51097;51.984;5.650;2024-03-08T05:37:55;33.42;;;20.92;;
44822;SDS011;51097;51.984;5.650;2024-03-08T05:40:20;42.30;;;25.48;;
44822;SDS011;51097;51.984;5.650;2024-03-08T05:42:46;37.28;;;22.50;;
44822;SDS011;51097;51.984;5.650;2024-03-08T05:45:12;38.00;;;23.60;;
44822;SDS011;51097;51.984;5.650;2024-03-08T05:47:38;35.70;;;22.63;;
44822;SDS011;51097;51.984;5.650;2024-03-08T05:50:04;38.33;;;23.20;;
44822;SDS011;51097;51.984;5.650;2024-03-08T05:52:32;42.10;;;25.33;;
44822;SDS011;51097;51.984;5.650;2024-03-08T05:54:58;38.03;;;23.88;;
44822;SDS011;51097;51.984;5.650;2024-03-08T05:57:23;33.15;;;22.77;;
44822;SDS011;51097;51.984;5.650;2024-03-08T05:59:49;39.13;;;25.13;;
44822;SDS011;51097;51.984;5.650;2024-03-08T06:02:15;36.25;;;23.67;;
44822;SDS011;51097;51.984;5.650;2024-03-08T06:04:44;36.38;;;22.45;;
44822;SDS011;51097;51.984;5.650;2024-03-08T06:07:12;36.50;;;22.17;;
44822;SDS011;51097;51.984;5.650;2024-03-08T06:09:38;39.65;;;23.38;;
44822;SDS011;51097;51.984;5.650;2024-03-08T06:12:03;41.60;;;24.52;;
44822;SDS011;51097;51.984;5.650;2024-03-08T06:14:31;39.40;;;23.95;;
44822;SDS011;51097;51.984;5.650;2024-03-08T06:16:57;38.28;;;23.38;;
44822;SDS011;51097;51.984;5.650;2024-03-08T06:19:23;38.33;;;23.58;;
44822;SDS011;51097;51.984;5.650;2024-03-08T06:21:48;37.63;;;23.92;;
44822;SDS011;51097;51.984;5.650;2024-03-08T06:24:14;37.17;;;22.75;;
44822;SDS011;51097;51.984;5.650;2024-03-08T06:26:40;34.75;;;22.73;;
44822;SDS011;51097;51.984;5.650;2024-03-08T06:29:06;36.58;;;23.50;;
44822;SDS011;51097;51.984;5.650;2024-03-08T06:31:32;36.50;;;24.30;;
44822;SDS011;51097;51.984;5.650;2024-03-08T06:33:57;40.75;;;24.33;;
44822;SDS011;51097;51.984;5.650;2024-03-08T06:36:23;39.00;;;24.02;;
44822;SDS011;51097;51.984;5.650;2024-03-08T06:38:49;35.33;;;23.05;;
44822;SDS011;51097;51.984;5.650;2024-03-08T06:41:15;36.92;;;23.02;;
44822;SDS011;51097;51.984;5.650;2024-03-08T06:43:41;41.67;;;24.85;;
44822;SDS011;51097;51.984;5.650;2024-03-08T06:46:10;39.60;;;23.58;;
44822;SDS011;51097;51.984;5.650;2024-03-08T06:48:37;33.03;;;23.45;;
44822;SDS011;51097;51.984;5.650;2024-03-08T06:51:03;39.08;;;23.25;;
44822;SDS011;51097;51.984;5.650;2024-03-08T06:53:30;43.40;;;25.00;;
44822;SDS011;51097;51.984;5.650;2024-03-08T06:55:56;40.72;;;25.88;;
44822;SDS011;51097;51.984;5.650;2024-03-08T06:58:22;41.55;;;24.60;;
44822;SDS011;51097;51.984;5.650;2024-03-08T07:00:48;42.20;;;24.90;;
44822;SDS011;51097;51.984;5.650;2024-03-08T07:03:17;37.08;;;23.30;;
44822;SDS011;51097;51.984;5.650;2024-03-08T07:05:43;39.80;;;22.35;;
44822;SDS011;51097;51.984;5.650;2024-03-08T07:08:08;42.35;;;24.83;;
44822;SDS011;51097;51.984;5.650;2024-03-08T07:10:34;38.90;;;25.77;;
44822;SDS011;51097;51.984;5.650;2024-03-08T07:13:02;35.78;;;23.52;;
44822;SDS011;51097;51.984;5.650;2024-03-08T07:15:27;33.70;;;22.23;;
44822;SDS011;51097;51.984;5.650;2024-03-08T07:17:53;39.45;;;25.35;;
44822;SDS011;51097;51.984;5.650;2024-03-08T07:20:19;42.22;;;24.08;;
44822;SDS011;51097;51.984;5.650;2024-03-08T07:22:46;40.40;;;22.75;;
44822;SDS011;51097;51.984;5.650;2024-03-08T07:25:12;41.50;;;24.83;;
44822;SDS011;51097;51.984;5.650;2024-03-08T07:27:49;35.30;;;23.73;;
44822;SDS011;51097;51.984;5.650;2024-03-08T07:33:04;32.92;;;22.98;;
44822;SDS011;51097;51.984;5.650;2024-03-08T07:35:31;35.65;;;23.50;;
44822;SDS011;51097;51.984;5.650;2024-03-08T07:37:58;42.35;;;24.65;;
44822;SDS011;51097;51.984;5.650;2024-03-08T07:40:25;40.28;;;24.45;;
44822;SDS011;51097;51.984;5.650;2024-03-08T07:42:51;43.40;;;24.95;;
44822;SDS011;51097;51.984;5.650;2024-03-08T07:45:16;39.47;;;24.00;;
44822;SDS011;51097;51.984;5.650;2024-03-08T07:47:42;38.38;;;23.55;;
44822;SDS011;51097;51.984;5.650;2024-03-08T07:50:08;40.83;;;25.58;;
44822;SDS011;51097;51.984;5.650;2024-03-08T07:52:34;37.60;;;24.73;;
44822;SDS011;51097;51.984;5.650;2024-03-08T07:55:01;36.28;;;23.17;;
44822;SDS011;51097;51.984;5.650;2024-03-08T07:57:28;31.58;;;22.30;;
44822;SDS011;51097;51.984;5.650;2024-03-08T07:59:54;38.60;;;25.08;;
44822;SDS011;51097;51.984;5.650;2024-03-08T08:02:20;41.40;;;25.02;;
44822;SDS011;51097;51.984;5.650;2024-03-08T08:04:46;37.88;;;24.40;;
44822;SDS011;51097;51.984;5.650;2024-03-08T08:07:11;43.65;;;24.73;;
44822;SDS011;51097;51.984;5.650;2024-03-08T08:09:37;35.25;;;23.65;;
44822;SDS011;51097;51.984;5.650;2024-03-08T08:12:03;36.75;;;24.27;;
44822;SDS011;51097;51.984;5.650;2024-03-08T08:14:29;36.83;;;23.48;;
44822;SDS011;51097;51.984;5.650;2024-03-08T08:16:55;33.83;;;21.58;;
44822;SDS011;51097;51.984;5.650;2024-03-08T08:19:22;37.30;;;23.25;;
44822;SDS011;51097;51.984;5.650;2024-03-08T08:21:48;40.83;;;24.33;;
44822;SDS011;51097;51.984;5.650;2024-03-08T08:24:14;42.65;;;23.98;;
44822;SDS011;51097;51.984;5.650;2024-03-08T08:26:40;35.42;;;24.05;;
44822;SDS011;51097;51.984;5.650;2024-03-08T08:29:06;34.53;;;24.15;;
44822;SDS011;51097;51.984;5.650;2024-03-08T08:31:32;35.00;;;22.52;;
44822;SDS011;51097;51.984;5.650;2024-03-08T08:33:58;36.25;;;21.83;;
44822;SDS011;51097;51.984;5.650;2024-03-08T08:36:24;39.38;;;24.08;;
44822;SDS011;51097;51.984;5.650;2024-03-08T08:38:49;33.92;;;23.45;;
44822;SDS011;51097;51.984;5.650;2024-03-08T08:41:15;35.85;;;22.95;;
44822;SDS011;51097;51.984;5.650;2024-03-08T08:43:42;34.72;;;22.40;;
44822;SDS011;51097;51.984;5.650;2024-03-08T08:46:09;32.03;;;22.40;;
44822;SDS011;51097;51.984;5.650;2024-03-08T08:48:38;36.03;;;24.40;;
44822;SDS011;51097;51.984;5.650;2024-03-08T08:51:06;36.05;;;22.83;;
44822;SDS011;51097;51.984;5.650;2024-03-08T08:53:37;37.00;;;21.20;;
44822;SDS011;51097;51.984;5.650;2024-03-08T08:56:05;35.90;;;22.92;;
44822;SDS011;51097;51.984;5.650;2024-03-08T08:58:33;35.35;;;23.73;;
44822;SDS011;51097;51.984;5.650;2024-03-08T09:00:58;39.38;;;25.15;;
44822;SDS011;51097;51.984;5.650;2024-03-08T09:03:24;33.55;;;22.75;;
44822;SDS011;51097;51.984;5.650;2024-03-08T09:05:52;38.92;;;23.08;;
44822;SDS011;51097;51.984;5.650;2024-03-08T09:08:17;33.28;;;23.73;;
44822;SDS011;51097;51.984;5.650;2024-03-08T09:10:43;34.25;;;22.63;;
44822;SDS011;51097;51.984;5.650;2024-03-08T09:13:09;36.22;;;23.77;;
44822;SDS011;51097;51.984;5.650;2024-03-08T09:15:36;37.28;;;23.08;;
44822;SDS011;51097;51.984;5.650;2024-03-08T09:18:05;33.85;;;23.30;;
44822;SDS011;51097;51.984;5.650;2024-03-08T09:20:31;34.60;;;24.63;;
44822;SDS011;51097;51.984;5.650;2024-03-08T09:22:57;32.42;;;22.40;;
44822;SDS011;51097;51.984;5.650;2024-03-08T09:25:23;35.95;;;23.70;;
44822;SDS011;51097;51.984;5.650;2024-03-08T09:27:48;33.70;;;22.75;;
44822;SDS011;51097;51.984;5.650;2024-03-08T09:30:14;33.22;;;21.23;;
44822;SDS011;51097;51.984;5.650;2024-03-08T09:32:40;32.03;;;22.45;;
44822;SDS011;51097;51.984;5.650;2024-03-08T09:35:08;33.00;;;22.23;;
44822;SDS011;51097;51.984;5.650;2024-03-08T09:37:33;34.00;;;23.10;;
44822;SDS011;51097;51.984;5.650;2024-03-08T09:39:59;32.05;;;22.20;;
44822;SDS011;51097;51.984;5.650;2024-03-08T09:42:29;33.00;;;22.65;;
44822;SDS011;51097;51.984;5.650;2024-03-08T09:44:56;33.97;;;22.92;;
44822;SDS011;51097;51.984;5.650;2024-03-08T09:47:22;29.10;;;21.75;;
44822;SDS011;51097;51.984;5.650;2024-03-08T09:49:54;32.28;;;21.58;;
44822;SDS011;51097;51.984;5.650;2024-03-08T09:52:19;34.72;;;22.73;;
44822;SDS011;51097;51.984;5.650;2024-03-08T09:54:45;33.80;;;23.67;;
44822;SDS011;51097;51.984;5.650;2024-03-08T09:57:11;37.08;;;23.42;;
44822;SDS011;51097;51.984;5.650;2024-03-08T09:59:37;32.00;;;22.02;;
44822;SDS011;51097;51.984;5.650;2024-03-08T10:02:02;34.45;;;23.65;;
44822;SDS011;51097;51.984;5.650;2024-03-08T10:04:29;30.00;;;22.42;;
44822;SDS011;51097;51.984;5.650;2024-03-08T10:06:58;35.53;;;23.67;;
44822;SDS011;51097;51.984;5.650;2024-03-08T10:09:24;32.05;;;23.35;;
44822;SDS011;51097;51.984;5.650;2024-03-08T10:11:56;34.03;;;23.52;;
44822;SDS011;51097;51.984;5.650;2024-03-08T10:14:22;33.70;;;21.88;;
44822;SDS011;51097;51.984;5.650;2024-03-08T10:16:49;34.13;;;21.75;;
44822;SDS011;51097;51.984;5.650;2024-03-08T10:19:14;29.33;;;21.85;;
44822;SDS011;51097;51.984;5.650;2024-03-08T10:21:50;34.22;;;22.30;;
44822;SDS011;51097;51.984;5.650;2024-03-08T10:24:19;33.40;;;22.15;;
44822;SDS011;51097;51.984;5.650;2024-03-08T10:26:45;30.83;;;21.67;;
44822;SDS011;51097;51.984;5.650;2024-03-08T10:29:11;31.80;;;21.85;;
44822;SDS011;51097;51.984;5.650;2024-03-08T10:31:42;32.20;;;20.98;;
44822;SDS011;51097;51.984;5.650;2024-03-08T10:34:09;32.03;;;21.50;;
44822;SDS011;51097;51.984;5.650;2024-03-08T10:36:35;28.40;;;20.77;;
44822;SDS011;51097;51.984;5.650;2024-03-08T10:39:03;31.63;;;20.77;;
44822;SDS011;51097;51.984;5.650;2024-03-08T10:41:36;31.02;;;20.52;;
44822;SDS011;51097;51.984;5.650;2024-03-08T10:44:16;29.33;;;20.48;;
44822;SDS011;51097;51.984;5.650;2024-03-08T10:49:30;27.45;;;19.80;;
44822;SDS011;51097;51.984;5.650;2024-03-08T10:51:59;28.90;;;19.65;;
44822;SDS011;51097;51.984;5.650;2024-03-08T10:54:29;28.30;;;18.58;;
44822;SDS011;51097;51.984;5.650;2024-03-08T10:56:57;26.35;;;18.20;;
44822;SDS011;51097;51.984;5.650;2024-03-08T10:59:23;27.08;;;19.90;;
44822;SDS011;51097;51.984;5.650;2024-03-08T11:01:52;27.35;;;19.20;;
44822;SDS011;51097;51.984;5.650;2024-03-08T11:04:17;26.35;;;18.45;;
44822;SDS011;51097;51.984;5.650;2024-03-08T11:06:47;29.10;;;19.42;;
44822;SDS011;51097;51.984;5.650;2024-03-08T11:14:51;29.92;;;19.23;;
44822;SDS011;51097;51.984;5.650;2024-03-08T11:19:55;28.55;;;19.73;;
44822;SDS011;51097;51.984;5.650;2024-03-08T11:22:22;26.83;;;19.77;;
44822;SDS011;51097;51.984;5.650;2024-03-08T11:24:52;26.90;;;19.23;;
44822;SDS011;51097;51.984;5.650;2024-03-08T11:27:18;25.20;;;16.67;;
44822;SDS011;51097;51.984;5.650;2024-03-08T11:29:45;23.02;;;17.23;;
44822;SDS011;51097;51.984;5.650;2024-03-08T11:32:36;25.13;;;17.75;;
44822;SDS011;51097;51.984;5.650;2024-03-08T11:35:05;25.80;;;17.88;;
44822;SDS011;51097;51.984;5.650;2024-03-08T11:37:33;25.23;;;17.23;;
44822;SDS011;51097;51.984;5.650;2024-03-08T11:40:00;22.33;;;16.70;;
44822;SDS011;51097;51.984;5.650;2024-03-08T11:42:29;22.25;;;17.08;;
44822;SDS011;51097;51.984;5.650;2024-03-08T11:44:55;22.05;;;16.02;;
44822;SDS011;51097;51.984;5.650;2024-03-08T11:47:21;23.17;;;17.45;;
44822;SDS011;51097;51.984;5.650;2024-03-08T11:49:47;20.65;;;15.73;;
44822;SDS011;51097;51.984;5.650;2024-03-08T11:52:17;23.08;;;17.60;;
44822;SDS011;51097;51.984;5.650;2024-03-08T11:54:53;21.25;;;15.50;;
44822;SDS011;51097;51.984;5.650;2024-03-08T11:57:25;25.10;;;16.85;;
44822;SDS011;51097;51.984;5.650;2024-03-08T11:59:51;22.57;;;17.00;;
44822;SDS011;51097;51.984;5.650;2024-03-08T12:02:18;21.75;;;16.23;;
44822;SDS011;51097;51.984;5.650;2024-03-08T12:04:44;23.00;;;17.67;;
44822;SDS011;51097;51.984;5.650;2024-03-08T12:07:13;21.50;;;15.98;;
44822;SDS011;51097;51.984;5.650;2024-03-08T12:09:42;21.92;;;15.45;;
44822;SDS011;51097;51.984;5.650;2024-03-08T12:12:11;22.92;;;16.00;;
44822;SDS011;51097;51.984;5.650;2024-03-08T12:14:37;28.35;;;16.70;;
44822;SDS011;51097;51.984;5.650;2024-03-08T12:17:03;20.10;;;15.05;;
44822;SDS011;51097;51.984;5.650;2024-03-08T12:19:30;23.20;;;15.40;;
44822;SDS011;51097;51.984;5.650;2024-03-08T12:21:56;19.27;;;15.00;;
44822;SDS011;51097;51.984;5.650;2024-03-08T12:24:22;15.52;;;12.43;;
44822;SDS011;51097;51.984;5.650;2024-03-08T12:26:48;22.50;;;15.35;;
44822;SDS011;51097;51.984;5.650;2024-03-08T12:29:17;22.00;;;16.17;;
44822;SDS011;51097;51.984;5.650;2024-03-08T12:31:45;20.52;;;15.45;;
44822;SDS011;51097;51.984;5.650;2024-03-08T12:34:16;21.90;;;14.98;;
44822;SDS011;51097;51.984;5.650;2024-03-08T12:36:45;23.27;;;16.70;;
44822;SDS011;51097;51.984;5.650;2024-03-08T12:39:17;21.85;;;15.60;;
44822;SDS011;51097;51.984;5.650;2024-03-08T12:41:47;22.52;;;15.00;;
44822;SDS011;51097;51.984;5.650;2024-03-08T12:44:14;23.58;;;16.90;;
44822;SDS011;51097;51.984;5.650;2024-03-08T12:46:40;24.67;;;17.02;;
44822;SDS011;51097;51.984;5.650;2024-03-08T12:49:08;23.75;;;17.23;;
44822;SDS011;51097;51.984;5.650;2024-03-08T12:51:35;24.92;;;17.48;;
44822;SDS011;51097;51.984;5.650;2024-03-08T12:54:01;23.08;;;16.80;;
44822;SDS011;51097;51.984;5.650;2024-03-08T12:56:31;21.50;;;16.20;;
44822;SDS011;51097;51.984;5.650;2024-03-08T12:58:58;24.55;;;17.85;;
44822;SDS011;51097;51.984;5.650;2024-03-08T13:01:25;24.02;;;16.00;;
44822;SDS011;51097;51.984;5.650;2024-03-08T13:03:51;21.08;;;16.63;;
44822;SDS011;51097;51.984;5.650;2024-03-08T13:06:17;23.80;;;17.33;;
44822;SDS011;51097;51.984;5.650;2024-03-08T13:08:49;25.13;;;18.45;;
44822;SDS011;51097;51.984;5.650;2024-03-08T13:11:15;24.77;;;17.95;;
44822;SDS011;51097;51.984;5.650;2024-03-08T13:13:41;24.23;;;17.65;;
44822;SDS011;51097;51.984;5.650;2024-03-08T13:16:08;24.70;;;17.20;;
44822;SDS011;51097;51.984;5.650;2024-03-08T13:18:34;20.80;;;15.27;;
44822;SDS011;51097;51.984;5.650;2024-03-08T13:21:00;24.50;;;18.35;;
44822;SDS011;51097;51.984;5.650;2024-03-08T13:23:31;22.40;;;17.70;;
44822;SDS011;51097;51.984;5.650;2024-03-08T13:25:57;25.48;;;18.10;;
44822;SDS011;51097;51.984;5.650;2024-03-08T13:28:23;27.73;;;16.30;;
44822;SDS011;51097;51.984;5.650;2024-03-08T13:30:53;24.70;;;17.02;;
44822;SDS011;51097;51.984;5.650;2024-03-08T13:33:18;27.50;;;18.17;;
44822;SDS011;51097;51.984;5.650;2024-03-08T13:35:45;24.20;;;16.70;;
44822;SDS011;51097;51.984;5.650;2024-03-08T13:38:11;26.58;;;19.52;;
44822;SDS011;51097;51.984;5.650;2024-03-08T13:40:38;25.38;;;17.67;;
44822;SDS011;51097;51.984;5.650;2024-03-08T13:43:05;25.50;;;18.05;;
44822;SDS011;51097;51.984;5.650;2024-03-08T13:45:33;24.90;;;16.52;;
44822;SDS011;51097;51.984;5.650;2024-03-08T13:50:29;26.55;;;18.58;;
44822;SDS011;51097;51.984;5.650;2024-03-08T13:52:55;22.58;;;17.58;;
44822;SDS011;51097;51.984;5.650;2024-03-08T13:55:21;25.75;;;17.83;;
44822;SDS011;51097;51.984;5.650;2024-03-08T13:57:47;24.85;;;18.33;;
44822;SDS011;51097;51.984;5.650;2024-03-08T14:00:13;26.15;;;18.27;;
44822;SDS011;51097;51.984;5.650;2024-03-08T14:02:40;26.05;;;18.95;;
44822;SDS011;51097;51.984;5.650;2024-03-08T14:05:09;24.25;;;17.52;;
44822;SDS011;51097;51.984;5.650;2024-03-08T14:07:36;23.63;;;17.63;;
44822;SDS011;51097;51.984;5.650;2024-03-08T14:10:02;23.92;;;19.10;;
44822;SDS011;51097;51.984;5.650;2024-03-08T14:12:28;24.70;;;17.75;;
44822;SDS011;51097;51.984;5.650;2024-03-08T14:14:54;24.15;;;17.80;;
44822;SDS011;51097;51.984;5.650;2024-03-08T14:17:22;22.42;;;17.58;;
44822;SDS011;51097;51.984;5.650;2024-03-08T14:19:48;25.05;;;17.88;;
44822;SDS011;51097;51.984;5.650;2024-03-08T14:22:15;24.63;;;17.65;;
44822;SDS011;51097;51.984;5.650;2024-03-08T14:24:41;23.90;;;16.73;;
44822;SDS011;51097;51.984;5.650;2024-03-08T14:27:07;28.33;;;17.83;;
44822;SDS011;51097;51.984;5.650;2024-03-08T14:29:34;22.88;;;16.30;;
44822;SDS011;51097;51.984;5.650;2024-03-08T14:32:00;23.48;;;18.23;;
44822;SDS011;51097;51.984;5.650;2024-03-08T14:34:28;23.30;;;17.65;;